University Heights, Iowa
Current Conditions -  °F | °C
As of 11:52 PM on Tuesday 27 Jan 2015 (Local Time) from KIOW Reporting Station
Haze Haze  
Wind Chill: 17°   Ceiling: 1100
Heat Index: 27°   Visibility: 6mi
Dew Point: 24°   Wind: 10mph
Humidity: 89%   Direction: 150°SSE
Pressure: 30.23"   Gusts: NA
Location:  41.5918°N, 91.6264°W
Report Text: KIOW 280552Z AUTO 15009KT 6SM BR OVC011 M03/M04 A3023 RMK AO2 SLP244 T10281044 11011 21028 400221028 50001
Loading
Personal Weather Stations






























Interactive Weather Map New forecast layout! Learn more

10-Day Weather Forecast

Advertisements
Track Severe Weather on mobile